sensor_id;sensor_type;location;lat;lon;timestamp;P1;durP1;ratioP1;P2;durP2;ratioP2
80675;SDS011;70041;46.088;18.268;2023-08-06T00:00:50;5.73;;;2.60;;
80675;SDS011;70041;46.088;18.268;2023-08-06T00:03:15;7.13;;;2.80;;
80675;SDS011;70041;46.088;18.268;2023-08-06T00:05:41;6.93;;;2.50;;
80675;SDS011;70041;46.088;18.268;2023-08-06T00:08:08;5.70;;;2.53;;
80675;SDS011;70041;46.088;18.268;2023-08-06T00:10:33;6.45;;;2.50;;
80675;SDS011;70041;46.088;18.268;2023-08-06T00:12:58;6.33;;;2.77;;
80675;SDS011;70041;46.088;18.268;2023-08-06T00:15:24;6.63;;;2.50;;
80675;SDS011;70041;46.088;18.268;2023-08-06T00:17:49;5.80;;;2.40;;
80675;SDS011;70041;46.088;18.268;2023-08-06T00:20:15;5.93;;;2.50;;
80675;SDS011;70041;46.088;18.268;2023-08-06T00:22:40;5.95;;;2.50;;
80675;SDS011;70041;46.088;18.268;2023-08-06T00:25:05;8.87;;;2.60;;
80675;SDS011;70041;46.088;18.268;2023-08-06T00:27:31;6.57;;;2.50;;
80675;SDS011;70041;46.088;18.268;2023-08-06T00:30:00;6.18;;;2.35;;
80675;SDS011;70041;46.088;18.268;2023-08-06T00:32:25;7.30;;;3.20;;
80675;SDS011;70041;46.088;18.268;2023-08-06T00:34:51;6.00;;;2.80;;
80675;SDS011;70041;46.088;18.268;2023-08-06T00:37:16;8.23;;;3.20;;
80675;SDS011;70041;46.088;18.268;2023-08-06T00:39:42;8.07;;;3.17;;
80675;SDS011;70041;46.088;18.268;2023-08-06T00:42:08;6.65;;;2.63;;
80675;SDS011;70041;46.088;18.268;2023-08-06T00:44:34;8.35;;;3.00;;
80675;SDS011;70041;46.088;18.268;2023-08-06T00:47:00;6.83;;;2.70;;
80675;SDS011;70041;46.088;18.268;2023-08-06T00:49:26;6.63;;;3.00;;
80675;SDS011;70041;46.088;18.268;2023-08-06T00:51:52;6.38;;;2.80;;
80675;SDS011;70041;46.088;18.268;2023-08-06T00:54:17;6.53;;;2.90;;
80675;SDS011;70041;46.088;18.268;2023-08-06T00:56:43;8.23;;;3.33;;
80675;SDS011;70041;46.088;18.268;2023-08-06T00:59:09;8.02;;;3.05;;
80675;SDS011;70041;46.088;18.268;2023-08-06T01:01:35;7.03;;;2.90;;
80675;SDS011;70041;46.088;18.268;2023-08-06T01:04:01;6.55;;;3.05;;
80675;SDS011;70041;46.088;18.268;2023-08-06T01:06:48;8.63;;;3.37;;
80675;SDS011;70041;46.088;18.268;2023-08-06T01:11:58;6.53;;;3.03;;
80675;SDS011;70041;46.088;18.268;2023-08-06T01:14:40;6.53;;;3.10;;
80675;SDS011;70041;46.088;18.268;2023-08-06T01:17:15;7.15;;;3.25;;
80675;SDS011;70041;46.088;18.268;2023-08-06T01:19:41;6.88;;;3.15;;
80675;SDS011;70041;46.088;18.268;2023-08-06T01:22:06;7.47;;;3.07;;
80675;SDS011;70041;46.088;18.268;2023-08-06T01:24:32;6.60;;;2.97;;
80675;SDS011;70041;46.088;18.268;2023-08-06T01:29:32;6.80;;;3.20;;
80675;SDS011;70041;46.088;18.268;2023-08-06T01:32:01;7.43;;;3.47;;
80675;SDS011;70041;46.088;18.268;2023-08-06T01:34:28;8.43;;;3.80;;
80675;SDS011;70041;46.088;18.268;2023-08-06T01:36:57;8.27;;;3.72;;
80675;SDS011;70041;46.088;18.268;2023-08-06T01:39:25;8.80;;;4.22;;
80675;SDS011;70041;46.088;18.268;2023-08-06T01:41:51;9.10;;;4.03;;
80675;SDS011;70041;46.088;18.268;2023-08-06T01:44:16;9.23;;;4.53;;
80675;SDS011;70041;46.088;18.268;2023-08-06T01:46:42;8.43;;;4.22;;
80675;SDS011;70041;46.088;18.268;2023-08-06T01:49:08;10.53;;;4.13;;
80675;SDS011;70041;46.088;18.268;2023-08-06T01:51:33;12.50;;;4.33;;
80675;SDS011;70041;46.088;18.268;2023-08-06T01:53:59;9.63;;;4.27;;
80675;SDS011;70041;46.088;18.268;2023-08-06T01:56:24;10.45;;;4.10;;
80675;SDS011;70041;46.088;18.268;2023-08-06T01:58:50;8.80;;;4.03;;
80675;SDS011;70041;46.088;18.268;2023-08-06T02:01:15;8.63;;;3.53;;
80675;SDS011;70041;46.088;18.268;2023-08-06T02:03:40;7.30;;;3.67;;
80675;SDS011;70041;46.088;18.268;2023-08-06T02:06:06;7.55;;;3.40;;
80675;SDS011;70041;46.088;18.268;2023-08-06T02:08:31;6.47;;;2.40;;
80675;SDS011;70041;46.088;18.268;2023-08-06T02:10:57;4.83;;;1.67;;
80675;SDS011;70041;46.088;18.268;2023-08-06T02:13:23;4.70;;;1.60;;
80675;SDS011;70041;46.088;18.268;2023-08-06T02:15:48;4.40;;;1.50;;
80675;SDS011;70041;46.088;18.268;2023-08-06T02:18:14;4.00;;;1.33;;
80675;SDS011;70041;46.088;18.268;2023-08-06T02:20:40;4.45;;;1.60;;
80675;SDS011;70041;46.088;18.268;2023-08-06T02:23:06;4.10;;;1.40;;
80675;SDS011;70041;46.088;18.268;2023-08-06T02:25:31;4.50;;;1.30;;
80675;SDS011;70041;46.088;18.268;2023-08-06T02:27:57;4.27;;;1.47;;
80675;SDS011;70041;46.088;18.268;2023-08-06T02:30:22;5.50;;;1.30;;
80675;SDS011;70041;46.088;18.268;2023-08-06T02:32:48;4.13;;;1.33;;
80675;SDS011;70041;46.088;18.268;2023-08-06T02:35:13;3.73;;;1.40;;
80675;SDS011;70041;46.088;18.268;2023-08-06T02:37:38;5.43;;;1.40;;
80675;SDS011;70041;46.088;18.268;2023-08-06T02:40:04;4.97;;;1.75;;
80675;SDS011;70041;46.088;18.268;2023-08-06T02:42:30;5.27;;;1.93;;
80675;SDS011;70041;46.088;18.268;2023-08-06T02:44:55;5.03;;;1.80;;
80675;SDS011;70041;46.088;18.268;2023-08-06T02:47:21;5.78;;;1.90;;
80675;SDS011;70041;46.088;18.268;2023-08-06T02:49:46;5.23;;;1.67;;
80675;SDS011;70041;46.088;18.268;2023-08-06T02:52:12;4.13;;;1.50;;
80675;SDS011;70041;46.088;18.268;2023-08-06T02:54:37;3.40;;;1.20;;
80675;SDS011;70041;46.088;18.268;2023-08-06T02:57:03;2.97;;;1.13;;
80675;SDS011;70041;46.088;18.268;2023-08-06T02:59:28;3.10;;;1.10;;
80675;SDS011;70041;46.088;18.268;2023-08-06T03:01:54;2.88;;;0.95;;
80675;SDS011;70041;46.088;18.268;2023-08-06T03:04:19;3.47;;;1.27;;
80675;SDS011;70041;46.088;18.268;2023-08-06T03:06:44;4.20;;;1.37;;
80675;SDS011;70041;46.088;18.268;2023-08-06T03:09:10;5.13;;;1.40;;
80675;SDS011;70041;46.088;18.268;2023-08-06T03:11:35;5.43;;;1.40;;
80675;SDS011;70041;46.088;18.268;2023-08-06T03:14:01;4.10;;;1.80;;
80675;SDS011;70041;46.088;18.268;2023-08-06T03:16:27;4.90;;;1.37;;
80675;SDS011;70041;46.088;18.268;2023-08-06T03:18:52;4.30;;;1.30;;
80675;SDS011;70041;46.088;18.268;2023-08-06T03:21:17;4.40;;;1.50;;
80675;SDS011;70041;46.088;18.268;2023-08-06T03:23:43;3.90;;;1.40;;
80675;SDS011;70041;46.088;18.268;2023-08-06T03:26:11;3.92;;;1.15;;
80675;SDS011;70041;46.088;18.268;2023-08-06T03:28:36;5.70;;;1.30;;
80675;SDS011;70041;46.088;18.268;2023-08-06T03:31:02;5.33;;;1.20;;
80675;SDS011;70041;46.088;18.268;2023-08-06T03:33:28;3.13;;;1.27;;
80675;SDS011;70041;46.088;18.268;2023-08-06T03:35:54;6.37;;;1.30;;
80675;SDS011;70041;46.088;18.268;2023-08-06T03:38:19;5.60;;;1.43;;
80675;SDS011;70041;46.088;18.268;2023-08-06T03:40:48;4.70;;;1.30;;
80675;SDS011;70041;46.088;18.268;2023-08-06T03:43:14;3.95;;;1.20;;
80675;SDS011;70041;46.088;18.268;2023-08-06T03:45:40;3.23;;;1.23;;
80675;SDS011;70041;46.088;18.268;2023-08-06T03:48:06;3.50;;;1.25;;
80675;SDS011;70041;46.088;18.268;2023-08-06T03:50:31;4.15;;;1.30;;
80675;SDS011;70041;46.088;18.268;2023-08-06T03:52:57;3.17;;;1.20;;
80675;SDS011;70041;46.088;18.268;2023-08-06T03:55:22;2.90;;;1.03;;
80675;SDS011;70041;46.088;18.268;2023-08-06T03:57:48;5.90;;;1.20;;
80675;SDS011;70041;46.088;18.268;2023-08-06T04:00:13;3.03;;;1.13;;
80675;SDS011;70041;46.088;18.268;2023-08-06T04:02:38;2.80;;;1.30;;
80675;SDS011;70041;46.088;18.268;2023-08-06T04:05:04;3.73;;;1.30;;
80675;SDS011;70041;46.088;18.268;2023-08-06T04:07:30;3.22;;;1.13;;
80675;SDS011;70041;46.088;18.268;2023-08-06T04:09:57;2.57;;;1.07;;
80675;SDS011;70041;46.088;18.268;2023-08-06T04:12:23;3.08;;;1.10;;
80675;SDS011;70041;46.088;18.268;2023-08-06T04:14:50;2.57;;;0.93;;
80675;SDS011;70041;46.088;18.268;2023-08-06T04:17:16;1.85;;;0.80;;
80675;SDS011;70041;46.088;18.268;2023-08-06T04:19:41;1.63;;;0.70;;
80675;SDS011;70041;46.088;18.268;2023-08-06T04:22:07;1.83;;;0.70;;
80675;SDS011;70041;46.088;18.268;2023-08-06T04:24:32;1.83;;;0.80;;
80675;SDS011;70041;46.088;18.268;2023-08-06T04:26:58;2.83;;;0.77;;
80675;SDS011;70041;46.088;18.268;2023-08-06T04:29:23;1.40;;;0.90;;
80675;SDS011;70041;46.088;18.268;2023-08-06T04:31:48;1.60;;;0.60;;
80675;SDS011;70041;46.088;18.268;2023-08-06T04:34:14;2.40;;;0.70;;
80675;SDS011;70041;46.088;18.268;2023-08-06T04:36:39;2.10;;;0.90;;
80675;SDS011;70041;46.088;18.268;2023-08-06T04:39:05;2.43;;;0.80;;
80675;SDS011;70041;46.088;18.268;2023-08-06T04:41:30;2.10;;;0.70;;
80675;SDS011;70041;46.088;18.268;2023-08-06T04:43:56;1.67;;;0.70;;
80675;SDS011;70041;46.088;18.268;2023-08-06T04:46:22;3.20;;;0.68;;
80675;SDS011;70041;46.088;18.268;2023-08-06T04:48:47;1.67;;;0.60;;
80675;SDS011;70041;46.088;18.268;2023-08-06T04:51:12;2.23;;;0.70;;
80675;SDS011;70041;46.088;18.268;2023-08-06T04:53:38;1.73;;;0.70;;
80675;SDS011;70041;46.088;18.268;2023-08-06T04:56:03;2.73;;;0.90;;
80675;SDS011;70041;46.088;18.268;2023-08-06T04:58:29;1.30;;;0.80;;
80675;SDS011;70041;46.088;18.268;2023-08-06T05:00:54;1.77;;;0.60;;
80675;SDS011;70041;46.088;18.268;2023-08-06T05:03:20;1.60;;;0.70;;
80675;SDS011;70041;46.088;18.268;2023-08-06T05:05:46;1.47;;;0.70;;
80675;SDS011;70041;46.088;18.268;2023-08-06T05:08:15;1.50;;;0.60;;
80675;SDS011;70041;46.088;18.268;2023-08-06T05:10:44;0.83;;;0.57;;
80675;SDS011;70041;46.088;18.268;2023-08-06T05:13:10;1.40;;;0.60;;
80675;SDS011;70041;46.088;18.268;2023-08-06T05:15:36;1.65;;;0.75;;
80675;SDS011;70041;46.088;18.268;2023-08-06T05:18:01;1.40;;;0.60;;
80675;SDS011;70041;46.088;18.268;2023-08-06T05:20:27;1.40;;;0.53;;
80675;SDS011;70041;46.088;18.268;2023-08-06T05:22:52;1.57;;;0.60;;
80675;SDS011;70041;46.088;18.268;2023-08-06T05:25:17;2.13;;;0.60;;
80675;SDS011;70041;46.088;18.268;2023-08-06T05:27:43;1.30;;;0.60;;
80675;SDS011;70041;46.088;18.268;2023-08-06T05:30:08;1.43;;;0.70;;
80675;SDS011;70041;46.088;18.268;2023-08-06T05:32:35;2.72;;;0.75;;
80675;SDS011;70041;46.088;18.268;2023-08-06T05:35:00;2.97;;;0.90;;
80675;SDS011;70041;46.088;18.268;2023-08-06T05:37:26;2.67;;;0.70;;
80675;SDS011;70041;46.088;18.268;2023-08-06T05:39:51;2.22;;;0.70;;
80675;SDS011;70041;46.088;18.268;2023-08-06T05:42:17;1.77;;;0.80;;
80675;SDS011;70041;46.088;18.268;2023-08-06T05:44:42;4.23;;;0.80;;
80675;SDS011;70041;46.088;18.268;2023-08-06T05:47:08;3.13;;;0.70;;
80675;SDS011;70041;46.088;18.268;2023-08-06T05:49:33;3.17;;;0.60;;
80675;SDS011;70041;46.088;18.268;2023-08-06T05:51:59;2.03;;;0.70;;
80675;SDS011;70041;46.088;18.268;2023-08-06T05:54:24;4.27;;;1.07;;
80675;SDS011;70041;46.088;18.268;2023-08-06T05:56:50;2.95;;;1.23;;
80675;SDS011;70041;46.088;18.268;2023-08-06T05:59:15;3.57;;;1.20;;
80675;SDS011;70041;46.088;18.268;2023-08-06T06:01:40;3.57;;;1.40;;
80675;SDS011;70041;46.088;18.268;2023-08-06T06:04:06;4.43;;;1.30;;
80675;SDS011;70041;46.088;18.268;2023-08-06T06:06:31;5.03;;;1.60;;
80675;SDS011;70041;46.088;18.268;2023-08-06T06:08:57;2.97;;;1.13;;
80675;SDS011;70041;46.088;18.268;2023-08-06T06:11:22;5.10;;;1.63;;
80675;SDS011;70041;46.088;18.268;2023-08-06T06:13:51;4.18;;;1.40;;
80675;SDS011;70041;46.088;18.268;2023-08-06T06:16:17;5.13;;;1.40;;
80675;SDS011;70041;46.088;18.268;2023-08-06T06:18:42;5.22;;;1.50;;
80675;SDS011;70041;46.088;18.268;2023-08-06T06:21:08;3.97;;;1.20;;
80675;SDS011;70041;46.088;18.268;2023-08-06T06:23:34;4.38;;;1.45;;
80675;SDS011;70041;46.088;18.268;2023-08-06T06:25:59;4.57;;;1.20;;
80675;SDS011;70041;46.088;18.268;2023-08-06T06:28:25;3.53;;;1.00;;
80675;SDS011;70041;46.088;18.268;2023-08-06T06:30:51;2.23;;;0.90;;
80675;SDS011;70041;46.088;18.268;2023-08-06T06:33:16;2.97;;;0.80;;
80675;SDS011;70041;46.088;18.268;2023-08-06T06:35:43;2.05;;;0.70;;
80675;SDS011;70041;46.088;18.268;2023-08-06T06:38:09;1.60;;;0.57;;
80675;SDS011;70041;46.088;18.268;2023-08-06T06:40:35;1.15;;;0.60;;
80675;SDS011;70041;46.088;18.268;2023-08-06T06:43:00;1.03;;;0.50;;
80675;SDS011;70041;46.088;18.268;2023-08-06T06:45:26;1.70;;;0.60;;
80675;SDS011;70041;46.088;18.268;2023-08-06T06:47:52;5.73;;;0.50;;
80675;SDS011;70041;46.088;18.268;2023-08-06T06:50:17;1.20;;;0.60;;
80675;SDS011;70041;46.088;18.268;2023-08-06T06:52:43;1.90;;;0.57;;
80675;SDS011;70041;46.088;18.268;2023-08-06T06:55:08;0.80;;;0.50;;
80675;SDS011;70041;46.088;18.268;2023-08-06T06:57:33;3.00;;;0.50;;
80675;SDS011;70041;46.088;18.268;2023-08-06T06:59:59;0.98;;;0.50;;
80675;SDS011;70041;46.088;18.268;2023-08-06T07:02:24;1.13;;;0.50;;
80675;SDS011;70041;46.088;18.268;2023-08-06T07:04:50;0.83;;;0.60;;
80675;SDS011;70041;46.088;18.268;2023-08-06T07:07:15;1.07;;;0.50;;
80675;SDS011;70041;46.088;18.268;2023-08-06T07:09:40;1.00;;;0.60;;
80675;SDS011;70041;46.088;18.268;2023-08-06T07:12:06;1.10;;;0.50;;
80675;SDS011;70041;46.088;18.268;2023-08-06T07:14:32;2.03;;;0.70;;
80675;SDS011;70041;46.088;18.268;2023-08-06T07:16:57;1.13;;;0.50;;
80675;SDS011;70041;46.088;18.268;2023-08-06T07:19:23;1.25;;;0.60;;
80675;SDS011;70041;46.088;18.268;2023-08-06T07:21:48;1.13;;;0.40;;
80675;SDS011;70041;46.088;18.268;2023-08-06T07:24:14;1.00;;;0.70;;
80675;SDS011;70041;46.088;18.268;2023-08-06T07:26:39;1.10;;;0.40;;
80675;SDS011;70041;46.088;18.268;2023-08-06T07:29:04;1.37;;;0.50;;
80675;SDS011;70041;46.088;18.268;2023-08-06T07:31:30;1.60;;;0.50;;
80675;SDS011;70041;46.088;18.268;2023-08-06T07:33:55;1.13;;;0.60;;
80675;SDS011;70041;46.088;18.268;2023-08-06T07:36:21;0.87;;;0.40;;
80675;SDS011;70041;46.088;18.268;2023-08-06T07:38:46;1.00;;;0.50;;
80675;SDS011;70041;46.088;18.268;2023-08-06T07:41:13;1.50;;;0.50;;
80675;SDS011;70041;46.088;18.268;2023-08-06T07:43:39;2.35;;;0.57;;
80675;SDS011;70041;46.088;18.268;2023-08-06T07:46:04;7.40;;;1.10;;
80675;SDS011;70041;46.088;18.268;2023-08-06T07:48:30;2.53;;;0.70;;
80675;SDS011;70041;46.088;18.268;2023-08-06T07:50:56;2.20;;;0.60;;
80675;SDS011;70041;46.088;18.268;2023-08-06T07:53:22;2.53;;;0.57;;
80675;SDS011;70041;46.088;18.268;2023-08-06T07:55:49;2.05;;;0.63;;
80675;SDS011;70041;46.088;18.268;2023-08-06T07:58:16;1.30;;;0.50;;
80675;SDS011;70041;46.088;18.268;2023-08-06T08:00:41;1.27;;;0.50;;
80675;SDS011;70041;46.088;18.268;2023-08-06T08:03:09;2.77;;;0.70;;
80675;SDS011;70041;46.088;18.268;2023-08-06T08:05:34;1.58;;;0.60;;
80675;SDS011;70041;46.088;18.268;2023-08-06T08:08:00;2.20;;;0.50;;
80675;SDS011;70041;46.088;18.268;2023-08-06T08:10:25;3.87;;;0.60;;
80675;SDS011;70041;46.088;18.268;2023-08-06T08:12:51;1.53;;;0.80;;
80675;SDS011;70041;46.088;18.268;2023-08-06T08:15:16;2.30;;;0.70;;
80675;SDS011;70041;46.088;18.268;2023-08-06T08:17:42;2.35;;;0.60;;
80675;SDS011;70041;46.088;18.268;2023-08-06T08:20:08;1.80;;;0.63;;
80675;SDS011;70041;46.088;18.268;2023-08-06T08:22:34;1.13;;;0.60;;
80675;SDS011;70041;46.088;18.268;2023-08-06T08:24:59;2.27;;;0.80;;
80675;SDS011;70041;46.088;18.268;2023-08-06T08:27:24;1.80;;;0.70;;
80675;SDS011;70041;46.088;18.268;2023-08-06T08:29:51;2.10;;;0.60;;
80675;SDS011;70041;46.088;18.268;2023-08-06T08:32:16;2.33;;;0.60;;
80675;SDS011;70041;46.088;18.268;2023-08-06T08:34:41;1.60;;;0.50;;
80675;SDS011;70041;46.088;18.268;2023-08-06T08:37:07;1.97;;;0.70;;
80675;SDS011;70041;46.088;18.268;2023-08-06T08:39:32;1.63;;;0.67;;
80675;SDS011;70041;46.088;18.268;2023-08-06T08:41:58;2.13;;;0.70;;
80675;SDS011;70041;46.088;18.268;2023-08-06T08:44:23;2.30;;;0.80;;
80675;SDS011;70041;46.088;18.268;2023-08-06T08:46:53;2.70;;;0.70;;
80675;SDS011;70041;46.088;18.268;2023-08-06T08:49:18;2.27;;;0.77;;
80675;SDS011;70041;46.088;18.268;2023-08-06T08:51:46;2.20;;;0.70;;
80675;SDS011;70041;46.088;18.268;2023-08-06T08:54:12;2.37;;;0.77;;
80675;SDS011;70041;46.088;18.268;2023-08-06T08:56:40;1.50;;;0.63;;
80675;SDS011;70041;46.088;18.268;2023-08-06T08:59:05;2.43;;;0.70;;
80675;SDS011;70041;46.088;18.268;2023-08-06T09:01:31;2.23;;;0.63;;
80675;SDS011;70041;46.088;18.268;2023-08-06T09:03:57;2.50;;;0.70;;
80675;SDS011;70041;46.088;18.268;2023-08-06T09:06:25;2.08;;;0.80;;
80675;SDS011;70041;46.088;18.268;2023-08-06T09:08:56;1.20;;;0.60;;
80675;SDS011;70041;46.088;18.268;2023-08-06T09:11:30;1.35;;;0.52;;
80675;SDS011;70041;46.088;18.268;2023-08-06T09:14:04;2.80;;;0.80;;
80675;SDS011;70041;46.088;18.268;2023-08-06T09:16:34;2.07;;;0.73;;
80675;SDS011;70041;46.088;18.268;2023-08-06T09:19:09;2.85;;;0.80;;
80675;SDS011;70041;46.088;18.268;2023-08-06T09:21:40;1.83;;;0.60;;
80675;SDS011;70041;46.088;18.268;2023-08-06T09:24:12;2.75;;;0.80;;
80675;SDS011;70041;46.088;18.268;2023-08-06T09:26:38;2.10;;;0.70;;
80675;SDS011;70041;46.088;18.268;2023-08-06T09:29:05;1.83;;;0.70;;
80675;SDS011;70041;46.088;18.268;2023-08-06T09:31:32;2.10;;;0.70;;
80675;SDS011;70041;46.088;18.268;2023-08-06T09:33:59;1.95;;;0.80;;
80675;SDS011;70041;46.088;18.268;2023-08-06T09:36:26;1.88;;;0.70;;
80675;SDS011;70041;46.088;18.268;2023-08-06T09:38:52;2.60;;;0.90;;
80675;SDS011;70041;46.088;18.268;2023-08-06T09:41:26;1.38;;;0.65;;
80675;SDS011;70041;46.088;18.268;2023-08-06T09:43:53;2.17;;;0.50;;
80675;SDS011;70041;46.088;18.268;2023-08-06T09:46:19;1.80;;;0.60;;
80675;SDS011;70041;46.088;18.268;2023-08-06T09:48:45;1.30;;;0.60;;
80675;SDS011;70041;46.088;18.268;2023-08-06T09:51:11;1.90;;;0.70;;
80675;SDS011;70041;46.088;18.268;2023-08-06T09:53:38;1.40;;;0.50;;
80675;SDS011;70041;46.088;18.268;2023-08-06T09:56:05;1.65;;;0.60;;
80675;SDS011;70041;46.088;18.268;2023-08-06T09:58:31;2.35;;;0.60;;
80675;SDS011;70041;46.088;18.268;2023-08-06T10:00:57;1.40;;;0.70;;
80675;SDS011;70041;46.088;18.268;2023-08-06T10:03:23;1.60;;;0.70;;
80675;SDS011;70041;46.088;18.268;2023-08-06T10:05:49;1.13;;;0.60;;
80675;SDS011;70041;46.088;18.268;2023-08-06T10:08:15;1.50;;;0.60;;
80675;SDS011;70041;46.088;18.268;2023-08-06T10:10:40;1.57;;;0.60;;
80675;SDS011;70041;46.088;18.268;2023-08-06T10:13:06;2.30;;;0.77;;
80675;SDS011;70041;46.088;18.268;2023-08-06T10:15:33;1.38;;;0.60;;
80675;SDS011;70041;46.088;18.268;2023-08-06T10:17:59;2.10;;;0.70;;
80675;SDS011;70041;46.088;18.268;2023-08-06T10:20:26;1.63;;;0.60;;
80675;SDS011;70041;46.088;18.268;2023-08-06T10:23:01;1.37;;;0.50;;
80675;SDS011;70041;46.088;18.268;2023-08-06T10:25:34;1.73;;;0.60;;
80675;SDS011;70041;46.088;18.268;2023-08-06T10:28:08;1.65;;;0.70;;
80675;SDS011;70041;46.088;18.268;2023-08-06T10:30:41;1.65;;;0.77;;
80675;SDS011;70041;46.088;18.268;2023-08-06T10:33:07;1.10;;;0.60;;
80675;SDS011;70041;46.088;18.268;2023-08-06T10:35:36;1.60;;;0.65;;
80675;SDS011;70041;46.088;18.268;2023-08-06T10:40:31;1.83;;;0.70;;
80675;SDS011;70041;46.088;18.268;2023-08-06T10:43:00;2.60;;;0.70;;
80675;SDS011;70041;46.088;18.268;2023-08-06T10:45:27;1.60;;;0.70;;
80675;SDS011;70041;46.088;18.268;2023-08-06T10:47:54;2.60;;;0.80;;
80675;SDS011;70041;46.088;18.268;2023-08-06T10:50:23;2.15;;;0.77;;
80675;SDS011;70041;46.088;18.268;2023-08-06T10:52:49;1.55;;;0.60;;
80675;SDS011;70041;46.088;18.268;2023-08-06T10:55:21;1.87;;;0.70;;
80675;SDS011;70041;46.088;18.268;2023-08-06T10:57:48;1.27;;;0.60;;
80675;SDS011;70041;46.088;18.268;2023-08-06T11:00:13;1.00;;;0.60;;
80675;SDS011;70041;46.088;18.268;2023-08-06T11:02:39;1.88;;;0.68;;
80675;SDS011;70041;46.088;18.268;2023-08-06T11:05:05;1.83;;;0.60;;
80675;SDS011;70041;46.088;18.268;2023-08-06T11:07:31;1.17;;;0.68;;
80675;SDS011;70041;46.088;18.268;2023-08-06T11:12:29;1.70;;;0.70;;
80675;SDS011;70041;46.088;18.268;2023-08-06T11:14:56;1.90;;;0.63;;
80675;SDS011;70041;46.088;18.268;2023-08-06T11:17:21;2.40;;;0.77;;
80675;SDS011;70041;46.088;18.268;2023-08-06T11:19:47;2.57;;;0.80;;
80675;SDS011;70041;46.088;18.268;2023-08-06T11:22:13;1.75;;;0.80;;
80675;SDS011;70041;46.088;18.268;2023-08-06T11:24:39;2.60;;;0.90;;
80675;SDS011;70041;46.088;18.268;2023-08-06T11:27:14;2.45;;;0.77;;
80675;SDS011;70041;46.088;18.268;2023-08-06T11:29:41;2.07;;;0.70;;
80675;SDS011;70041;46.088;18.268;2023-08-06T11:32:07;2.25;;;0.90;;
80675;SDS011;70041;46.088;18.268;2023-08-06T11:34:34;1.63;;;0.73;;
80675;SDS011;70041;46.088;18.268;2023-08-06T11:36:59;2.70;;;0.80;;
80675;SDS011;70041;46.088;18.268;2023-08-06T11:39:25;1.67;;;0.70;;
80675;SDS011;70041;46.088;18.268;2023-08-06T11:41:50;1.87;;;0.70;;
80675;SDS011;70041;46.088;18.268;2023-08-06T11:44:18;3.15;;;0.90;;
80675;SDS011;70041;46.088;18.268;2023-08-06T11:46:54;3.22;;;0.80;;
80675;SDS011;70041;46.088;18.268;2023-08-06T11:49:45;2.50;;;0.93;;
80675;SDS011;70041;46.088;18.268;2023-08-06T11:54:39;2.85;;;0.80;;
80675;SDS011;70041;46.088;18.268;2023-08-06T11:57:07;3.17;;;0.87;;
80675;SDS011;70041;46.088;18.268;2023-08-06T11:59:33;2.30;;;0.75;;
80675;SDS011;70041;46.088;18.268;2023-08-06T12:02:03;2.60;;;0.80;;
80675;SDS011;70041;46.088;18.268;2023-08-06T12:04:31;2.05;;;0.80;;
80675;SDS011;70041;46.088;18.268;2023-08-06T12:07:04;2.88;;;0.82;;
80675;SDS011;70041;46.088;18.268;2023-08-06T12:09:35;3.65;;;0.90;;
80675;SDS011;70041;46.088;18.268;2023-08-06T12:12:01;1.90;;;0.80;;
80675;SDS011;70041;46.088;18.268;2023-08-06T12:14:26;2.37;;;0.77;;
80675;SDS011;70041;46.088;18.268;2023-08-06T12:16:52;2.45;;;0.70;;
80675;SDS011;70041;46.088;18.268;2023-08-06T12:19:17;2.63;;;0.70;;
80675;SDS011;70041;46.088;18.268;2023-08-06T12:21:42;1.67;;;0.70;;
80675;SDS011;70041;46.088;18.268;2023-08-06T12:24:08;5.33;;;0.80;;
80675;SDS011;70041;46.088;18.268;2023-08-06T12:26:35;1.38;;;0.70;;
80675;SDS011;70041;46.088;18.268;2023-08-06T12:29:00;2.57;;;0.70;;
80675;SDS011;70041;46.088;18.268;2023-08-06T12:31:25;2.07;;;0.80;;
80675;SDS011;70041;46.088;18.268;2023-08-06T12:33:51;1.33;;;0.70;;
80675;SDS011;70041;46.088;18.268;2023-08-06T12:36:16;2.60;;;0.70;;
80675;SDS011;70041;46.088;18.268;2023-08-06T12:38:42;1.80;;;0.70;;
80675;SDS011;70041;46.088;18.268;2023-08-06T12:41:07;1.55;;;0.63;;
80675;SDS011;70041;46.088;18.268;2023-08-06T12:43:33;2.23;;;0.80;;
80675;SDS011;70041;46.088;18.268;2023-08-06T12:45:58;2.07;;;0.70;;
80675;SDS011;70041;46.088;18.268;2023-08-06T12:48:23;3.97;;;0.73;;
80675;SDS011;70041;46.088;18.268;2023-08-06T12:50:49;2.67;;;0.90;;
80675;SDS011;70041;46.088;18.268;2023-08-06T12:53:14;1.55;;;0.80;;
80675;SDS011;70041;46.088;18.268;2023-08-06T12:55:40;3.03;;;0.80;;
80675;SDS011;70041;46.088;18.268;2023-08-06T12:58:06;1.73;;;0.73;;
80675;SDS011;70041;46.088;18.268;2023-08-06T13:00:31;1.90;;;1.00;;
80675;SDS011;70041;46.088;18.268;2023-08-06T13:02:57;2.20;;;0.77;;
80675;SDS011;70041;46.088;18.268;2023-08-06T13:05:22;1.50;;;0.60;;
80675;SDS011;70041;46.088;18.268;2023-08-06T13:07:48;2.63;;;0.80;;
80675;SDS011;70041;46.088;18.268;2023-08-06T13:10:13;2.13;;;0.73;;
80675;SDS011;70041;46.088;18.268;2023-08-06T13:12:39;1.92;;;0.70;;
80675;SDS011;70041;46.088;18.268;2023-08-06T13:15:04;1.33;;;0.70;;
80675;SDS011;70041;46.088;18.268;2023-08-06T13:17:30;1.08;;;0.60;;
80675;SDS011;70041;46.088;18.268;2023-08-06T13:19:56;2.23;;;0.90;;
80675;SDS011;70041;46.088;18.268;2023-08-06T13:22:21;2.57;;;0.80;;
80675;SDS011;70041;46.088;18.268;2023-08-06T13:24:46;1.23;;;0.60;;
80675;SDS011;70041;46.088;18.268;2023-08-06T13:27:12;2.13;;;0.65;;
80675;SDS011;70041;46.088;18.268;2023-08-06T13:29:37;1.43;;;0.67;;
80675;SDS011;70041;46.088;18.268;2023-08-06T13:32:03;2.13;;;0.87;;
80675;SDS011;70041;46.088;18.268;2023-08-06T13:34:28;1.60;;;0.73;;
80675;SDS011;70041;46.088;18.268;2023-08-06T13:36:54;2.10;;;0.80;;
80675;SDS011;70041;46.088;18.268;2023-08-06T13:39:19;4.00;;;0.90;;
80675;SDS011;70041;46.088;18.268;2023-08-06T13:41:45;2.13;;;0.80;;
80675;SDS011;70041;46.088;18.268;2023-08-06T13:44:10;1.65;;;0.70;;
80675;SDS011;70041;46.088;18.268;2023-08-06T13:46:36;2.57;;;0.80;;
80675;SDS011;70041;46.088;18.268;2023-08-06T13:49:01;1.83;;;0.80;;
80675;SDS011;70041;46.088;18.268;2023-08-06T13:51:27;3.60;;;0.85;;
80675;SDS011;70041;46.088;18.268;2023-08-06T13:53:53;2.40;;;0.70;;
80675;SDS011;70041;46.088;18.268;2023-08-06T13:56:19;1.38;;;0.60;;
80675;SDS011;70041;46.088;18.268;2023-08-06T13:58:44;2.33;;;0.77;;
80675;SDS011;70041;46.088;18.268;2023-08-06T14:01:10;2.10;;;0.70;;
80675;SDS011;70041;46.088;18.268;2023-08-06T14:03:36;2.67;;;0.82;;
80675;SDS011;70041;46.088;18.268;2023-08-06T14:06:01;2.73;;;0.70;;
80675;SDS011;70041;46.088;18.268;2023-08-06T14:08:27;1.83;;;0.80;;
80675;SDS011;70041;46.088;18.268;2023-08-06T14:10:52;2.63;;;0.87;;
80675;SDS011;70041;46.088;18.268;2023-08-06T14:13:18;2.97;;;0.97;;
80675;SDS011;70041;46.088;18.268;2023-08-06T14:15:44;2.25;;;0.82;;
80675;SDS011;70041;46.088;18.268;2023-08-06T14:18:11;1.77;;;0.70;;
80675;SDS011;70041;46.088;18.268;2023-08-06T14:20:37;2.17;;;0.83;;
80675;SDS011;70041;46.088;18.268;2023-08-06T14:23:03;3.17;;;0.87;;
80675;SDS011;70041;46.088;18.268;2023-08-06T14:25:28;2.20;;;0.83;;
80675;SDS011;70041;46.088;18.268;2023-08-06T14:27:54;2.42;;;0.80;;
80675;SDS011;70041;46.088;18.268;2023-08-06T14:30:19;2.63;;;0.70;;
80675;SDS011;70041;46.088;18.268;2023-08-06T14:32:45;2.77;;;1.07;;
80675;SDS011;70041;46.088;18.268;2023-08-06T14:35:10;2.00;;;0.80;;
80675;SDS011;70041;46.088;18.268;2023-08-06T14:37:36;2.40;;;0.90;;
80675;SDS011;70041;46.088;18.268;2023-08-06T14:40:01;3.23;;;1.00;;